createdAt,value
2022-09-25T04:00:31.280Z,14.62
2022-09-25T04:05:31.211Z,14.67
2022-09-25T04:10:31.158Z,14.75
2022-09-25T04:15:31.585Z,14.72
2022-09-25T04:20:38.132Z,14.88
2022-09-25T04:25:30.995Z,14.77
2022-09-25T04:30:30.940Z,14.69
2022-09-25T04:35:30.887Z,14.77
2022-09-25T04:40:30.887Z,14.74
2022-09-25T04:45:30.781Z,14.83
2022-09-25T04:50:30.725Z,14.74
2022-09-25T04:55:30.672Z,14.76
2022-09-25T05:00:30.733Z,14.79
2022-09-25T05:05:30.645Z,14.67
2022-09-25T05:10:30.538Z,14.53
2022-09-25T05:15:30.438Z,14.37
2022-09-25T05:20:30.425Z,14.39
2022-09-25T05:25:30.343Z,14.17
2022-09-25T05:30:30.291Z,14.15
2022-09-25T05:35:30.233Z,13.97
2022-09-25T05:40:30.258Z,14.02
2022-09-25T05:45:30.130Z,13.81
2022-09-25T05:50:30.077Z,13.76
2022-09-25T05:55:30.017Z,13.73
2022-09-25T06:00:29.987Z,13.67
2022-09-25T06:05:29.916Z,13.66
2022-09-25T06:10:29.862Z,13.59
2022-09-25T06:15:29.836Z,13.59
2022-09-25T06:20:29.773Z,13.60
2022-09-25T06:25:29.697Z,13.58
2022-09-25T06:30:29.670Z,13.67
2022-09-25T06:35:29.619Z,13.67
2022-09-25T06:40:29.644Z,13.86
2022-09-25T06:45:29.469Z,14.61
2022-09-25T06:50:29.431Z,17.67
2022-09-25T06:55:29.372Z,18.70
2022-09-25T07:00:29.338Z,19.07
2022-09-25T07:05:29.260Z,17.27
2022-09-25T07:10:29.204Z,16.30
2022-09-25T07:15:29.150Z,15.84
2022-09-25T07:20:29.116Z,16.12
2022-09-25T07:25:29.040Z,16.43
2022-09-25T07:30:28.987Z,16.25
2022-09-25T07:35:28.926Z,17.31
2022-09-25T07:40:29.030Z,17.78
2022-09-25T07:45:28.819Z,17.57
2022-09-25T07:50:28.755Z,17.79
2022-09-25T07:55:28.732Z,16.55
2022-09-25T08:00:28.655Z,16.14
2022-09-25T08:05:28.592Z,18.25
2022-09-25T08:10:28.538Z,18.63
2022-09-25T08:15:28.622Z,18.18
2022-09-25T08:20:28.444Z,16.37
2022-09-25T08:25:28.380Z,16.02
2022-09-25T08:30:28.318Z,16.63
2022-09-25T08:35:28.291Z,17.37
2022-09-25T08:40:28.316Z,17.72
2022-09-25T08:45:28.188Z,19.39
2022-09-25T08:50:28.102Z,20.17
2022-09-25T08:55:28.092Z,18.74
2022-09-25T09:00:28.095Z,18.96
2022-09-25T09:05:27.941Z,19.66
2022-09-25T09:10:27.883Z,19.46
2022-09-25T09:15:27.905Z,18.95
2022-09-25T09:20:27.790Z,18.73
2022-09-25T09:25:27.723Z,18.73
2022-09-25T09:30:27.665Z,18.74
2022-09-25T09:35:33.487Z,18.62
2022-09-25T09:40:28.705Z,18.74
2022-09-25T09:45:27.498Z,18.98
2022-09-25T09:50:27.442Z,19.40
2022-09-25T09:55:27.385Z,18.96
2022-09-25T10:00:27.500Z,18.65
2022-09-25T10:05:27.367Z,17.67
2022-09-25T10:10:27.230Z,17.26
2022-09-25T10:15:27.230Z,18.36
2022-09-25T10:20:34.228Z,19.15
2022-09-25T10:25:27.071Z,19.35
2022-09-25T10:30:27.028Z,19.37
2022-09-25T10:35:26.947Z,19.96
2022-09-25T10:40:27.092Z,19.17
2022-09-25T10:45:26.831Z,18.55
2022-09-25T10:50:26.910Z,18.56
2022-09-25T10:55:26.753Z,19.50
2022-09-25T11:00:26.804Z,19.58
2022-09-25T11:05:26.628Z,19.98
2022-09-25T11:10:26.686Z,19.79
2022-09-25T11:15:26.499Z,18.74
2022-09-25T11:20:26.674Z,19.47
2022-09-25T11:25:26.403Z,19.69
2022-09-25T11:30:26.426Z,20.23
2022-09-25T11:35:26.311Z,20.18
2022-09-25T11:40:26.431Z,20.52
2022-09-25T11:45:26.193Z,19.14
2022-09-25T11:50:26.129Z,18.38
2022-09-25T11:55:26.081Z,18.94
2022-09-25T12:00:26.043Z,19.60
2022-09-25T12:05:25.969Z,21.18
2022-09-25T12:10:25.917Z,20.90
2022-09-25T12:15:25.862Z,19.63
2022-09-25T12:20:25.821Z,19.57
2022-09-25T12:25:25.755Z,18.99
2022-09-25T12:30:25.708Z,19.05
2022-09-25T12:35:25.662Z,18.46
2022-09-25T12:40:25.644Z,18.87
2022-09-25T12:45:25.557Z,19.29
2022-09-25T12:50:25.490Z,20.46
2022-09-25T12:55:25.429Z,20.75
2022-09-25T13:00:25.479Z,20.64
2022-09-25T13:05:25.320Z,20.75
2022-09-25T13:10:25.267Z,20.76
2022-09-25T13:15:25.215Z,19.00
2022-09-25T13:20:25.176Z,19.18
2022-09-25T13:25:25.103Z,18.81
2022-09-25T13:30:25.050Z,18.29
2022-09-25T13:35:24.992Z,18.56
2022-09-25T13:40:25.089Z,19.30
2022-09-25T13:45:24.895Z,19.92
2022-09-25T13:50:24.819Z,19.92
2022-09-25T13:55:24.773Z,20.37
2022-09-25T14:00:24.740Z,20.45
2022-09-25T14:05:24.656Z,20.27
2022-09-25T14:10:24.627Z,19.22
2022-09-25T14:15:24.569Z,18.63
2022-09-25T14:20:24.543Z,18.28
2022-09-25T14:25:24.447Z,18.84
2022-09-25T14:30:24.401Z,19.40
2022-09-25T14:35:24.326Z,18.96
2022-09-25T14:40:24.379Z,18.44
2022-09-25T14:45:24.230Z,18.50
2022-09-25T14:50:24.178Z,19.01
2022-09-25T14:55:24.123Z,19.13
2022-09-25T15:00:24.083Z,19.03
2022-09-25T15:05:24.003Z,19.12
2022-09-25T15:10:23.954Z,19.09
2022-09-25T15:15:23.901Z,18.93
2022-09-25T15:20:23.854Z,18.95
2022-09-25T15:25:23.807Z,19.07
2022-09-25T15:30:23.756Z,18.68
2022-09-25T15:35:23.663Z,18.27
2022-09-25T15:40:23.709Z,18.15
2022-09-25T15:45:23.579Z,18.26
2022-09-25T15:50:23.502Z,18.17
2022-09-25T15:55:23.466Z,18.02
2022-09-25T16:00:23.438Z,17.70
2022-09-25T16:05:23.345Z,17.44
2022-09-25T16:10:23.304Z,17.32
2022-09-25T16:15:23.227Z,17.31
2022-09-25T16:20:30.244Z,17.27
2022-09-25T16:25:23.115Z,17.23
2022-09-25T16:30:23.101Z,17.25
2022-09-25T16:35:23.004Z,17.18
2022-09-25T16:40:23.138Z,17.12
2022-09-25T16:45:23.353Z,17.14
2022-09-25T16:50:22.838Z,17.18
2022-09-25T16:55:22.794Z,17.27
2022-09-25T17:00:22.758Z,17.12
2022-09-25T17:05:22.673Z,17.09
2022-09-25T17:10:22.642Z,16.85
2022-09-25T17:15:22.581Z,16.66
2022-09-25T17:20:22.609Z,16.46
2022-09-25T17:25:22.556Z,16.47
2022-09-25T17:30:22.416Z,16.34
2022-09-25T17:35:22.337Z,16.19
2022-09-25T17:40:22.418Z,16.10
2022-09-25T17:45:22.253Z,16.12
2022-09-25T17:50:22.170Z,16.07
2022-09-25T17:55:22.126Z,16.01
2022-09-25T18:00:22.180Z,16.08
2022-09-25T18:05:22.003Z,16.13
2022-09-25T18:10:21.958Z,16.13
2022-09-25T18:15:21.906Z,16.01
2022-09-25T18:20:21.942Z,15.83
2022-09-25T18:25:21.792Z,15.71
2022-09-25T18:30:21.751Z,15.44
2022-09-25T18:35:21.669Z,15.31
2022-09-25T18:40:21.836Z,14.96
2022-09-25T18:45:21.578Z,14.56
2022-09-25T18:50:21.504Z,14.26
2022-09-25T18:55:21.462Z,14.09
2022-09-25T19:00:21.435Z,13.92
2022-09-25T19:05:21.352Z,13.87
2022-09-25T19:10:21.297Z,13.74
2022-09-25T19:15:21.242Z,13.78
2022-09-25T19:20:21.223Z,13.85
2022-09-25T19:25:22.632Z,13.94
2022-09-25T19:30:21.083Z,14.05
2022-09-25T19:35:21.035Z,14.07
2022-09-25T19:40:21.082Z,14.01
2022-09-25T19:45:20.917Z,14.00
2022-09-25T19:50:20.860Z,13.81
2022-09-25T19:55:20.818Z,13.69
2022-09-25T20:00:20.776Z,13.50
2022-09-25T20:05:20.698Z,13.49
2022-09-25T20:10:20.641Z,13.31
2022-09-25T20:15:20.596Z,13.23
2022-09-25T20:20:20.557Z,13.21
2022-09-25T20:25:20.483Z,13.23
2022-09-25T20:30:20.426Z,13.21
2022-09-25T20:35:20.374Z,13.19
2022-09-25T20:40:20.440Z,13.23
2022-09-25T20:45:20.264Z,13.11
2022-09-25T20:50:20.212Z,12.90
2022-09-25T20:55:20.159Z,12.82
2022-09-25T21:00:20.133Z,12.60
2022-09-25T21:05:20.047Z,12.49
2022-09-25T21:10:19.996Z,12.34
2022-09-25T21:15:19.955Z,12.39
2022-09-25T21:20:19.987Z,12.26
2022-09-25T21:25:19.835Z,12.21
2022-09-25T21:30:19.787Z,12.18
2022-09-25T21:35:19.837Z,12.22
2022-09-25T21:40:19.810Z,12.12
2022-09-25T21:45:19.622Z,12.06
2022-09-25T21:50:19.569Z,12.22
2022-09-25T21:55:19.511Z,12.21
2022-09-25T22:00:19.480Z,12.43
2022-09-25T22:05:19.403Z,12.51
2022-09-25T22:10:19.351Z,12.43
2022-09-25T22:15:19.300Z,12.61
2022-09-25T22:20:19.267Z,12.67
2022-09-25T22:25:19.192Z,12.83
2022-09-25T22:30:19.135Z,13.05
2022-09-25T22:35:19.089Z,13.10
2022-09-25T22:40:19.093Z,12.99
2022-09-25T22:45:19.162Z,12.78
2022-09-25T22:50:18.923Z,12.62
2022-09-25T22:55:18.871Z,12.53
2022-09-25T23:00:18.832Z,12.59
2022-09-25T23:05:18.861Z,12.59
2022-09-25T23:10:18.709Z,12.53
2022-09-25T23:15:18.656Z,12.62
2022-09-25T23:20:18.619Z,12.63
2022-09-25T23:25:18.552Z,12.61
